sensor_id;sensor_type;location;lat;lon;timestamp;pressure;altitude;pressure_sealevel;temperature;humidity
60817;BME280;51921;51.518;-3.188;2023-02-12T00:00:16;103411.34;;;9.84;79.68
60817;BME280;51921;51.518;-3.188;2023-02-12T00:02:41;103414.77;;;8.38;81.65
60817;BME280;51921;51.518;-3.188;2023-02-12T00:05:07;103413.05;;;7.30;93.01
60817;BME280;51921;51.518;-3.188;2023-02-12T00:07:33;103415.26;;;9.16;83.60
60817;BME280;51921;51.518;-3.188;2023-02-12T00:09:57;103413.26;;;9.58;81.61
60817;BME280;51921;51.518;-3.188;2023-02-12T00:12:23;103408.13;;;10.04;79.08
60817;BME280;51921;51.518;-3.188;2023-02-12T00:14:49;103406.89;;;8.13;82.88
60817;BME280;51921;51.518;-3.188;2023-02-12T00:17:14;103403.72;;;8.07;89.42
60817;BME280;51921;51.518;-3.188;2023-02-12T00:19:39;103401.81;;;9.52;81.71
60817;BME280;51921;51.518;-3.188;2023-02-12T00:22:04;103400.75;;;6.66;93.11
60817;BME280;51921;51.518;-3.188;2023-02-12T00:24:30;103392.62;;;7.08;94.02
60817;BME280;51921;51.518;-3.188;2023-02-12T00:26:55;103392.29;;;8.19;91.45
60817;BME280;51921;51.518;-3.188;2023-02-12T00:29:21;103395.00;;;8.74;85.95
60817;BME280;51921;51.518;-3.188;2023-02-12T00:31:46;103391.46;;;9.30;82.68
60817;BME280;51921;51.518;-3.188;2023-02-12T00:34:12;103391.69;;;7.62;88.56
60817;BME280;51921;51.518;-3.188;2023-02-12T00:36:37;103392.96;;;7.95;89.61
60817;BME280;51921;51.518;-3.188;2023-02-12T00:39:03;103391.33;;;8.98;83.28
60817;BME280;51921;51.518;-3.188;2023-02-12T00:41:27;103381.39;;;9.62;80.49
60817;BME280;51921;51.518;-3.188;2023-02-12T00:43:52;103380.18;;;9.29;80.16
60817;BME280;51921;51.518;-3.188;2023-02-12T00:46:18;103385.89;;;10.21;78.75
60817;BME280;51921;51.518;-3.188;2023-02-12T00:48:43;103384.40;;;10.18;77.25
60817;BME280;51921;51.518;-3.188;2023-02-12T00:51:09;103385.17;;;9.96;76.59
60817;BME280;51921;51.518;-3.188;2023-02-12T00:53:36;103388.53;;;9.67;78.33
60817;BME280;51921;51.518;-3.188;2023-02-12T00:56:01;103385.46;;;10.06;75.71
60817;BME280;51921;51.518;-3.188;2023-02-12T00:58:27;103381.72;;;10.05;75.39
60817;BME280;51921;51.518;-3.188;2023-02-12T01:00:52;103380.19;;;10.23;74.39
60817;BME280;51921;51.518;-3.188;2023-02-12T01:03:17;103379.67;;;9.90;74.90
60817;BME280;51921;51.518;-3.188;2023-02-12T01:05:43;103382.90;;;7.89;80.09
60817;BME280;51921;51.518;-3.188;2023-02-12T01:08:11;103378.43;;;7.72;83.60
60817;BME280;51921;51.518;-3.188;2023-02-12T01:10:33;103377.05;;;8.01;86.44
60817;BME280;51921;51.518;-3.188;2023-02-12T01:12:59;103375.84;;;9.14;79.27
60817;BME280;51921;51.518;-3.188;2023-02-12T01:15:24;103375.27;;;8.57;80.76
60817;BME280;51921;51.518;-3.188;2023-02-12T01:17:51;103377.95;;;8.85;78.47
60817;BME280;51921;51.518;-3.188;2023-02-12T01:20:17;103375.11;;;9.07;79.15
60817;BME280;51921;51.518;-3.188;2023-02-12T01:22:40;103372.57;;;9.30;77.20
60817;BME280;51921;51.518;-3.188;2023-02-12T01:25:06;103372.62;;;7.44;83.03
60817;BME280;51921;51.518;-3.188;2023-02-12T01:27:32;103368.89;;;9.22;78.10
60817;BME280;51921;51.518;-3.188;2023-02-12T01:29:57;103367.71;;;9.66;76.16
60817;BME280;51921;51.518;-3.188;2023-02-12T01:32:23;103367.08;;;9.42;76.16
60817;BME280;51921;51.518;-3.188;2023-02-12T01:34:48;103367.93;;;8.74;76.83
60817;BME280;51921;51.518;-3.188;2023-02-12T01:37:14;103364.96;;;9.92;73.88
60817;BME280;51921;51.518;-3.188;2023-02-12T01:39:39;103368.61;;;7.84;77.37
60817;BME280;51921;51.518;-3.188;2023-02-12T01:42:05;103365.52;;;9.44;75.36
60817;BME280;51921;51.518;-3.188;2023-02-12T01:44:32;103367.25;;;9.63;74.29
60817;BME280;51921;51.518;-3.188;2023-02-12T01:46:57;103365.43;;;8.64;74.65
60817;BME280;51921;51.518;-3.188;2023-02-12T01:49:25;103358.82;;;6.70;85.71
60817;BME280;51921;51.518;-3.188;2023-02-12T01:51:50;103361.34;;;7.61;83.37
60817;BME280;51921;51.518;-3.188;2023-02-12T01:54:14;103355.23;;;6.76;87.17
60817;BME280;51921;51.518;-3.188;2023-02-12T01:56:38;103349.15;;;6.93;85.10
60817;BME280;51921;51.518;-3.188;2023-02-12T01:59:04;103348.13;;;5.92;93.72
60817;BME280;51921;51.518;-3.188;2023-02-12T02:01:30;103354.36;;;6.52;94.84
60817;BME280;51921;51.518;-3.188;2023-02-12T02:03:57;103354.59;;;7.11;91.19
60817;BME280;51921;51.518;-3.188;2023-02-12T02:06:22;103350.74;;;5.52;93.70
60817;BME280;51921;51.518;-3.188;2023-02-12T02:08:54;103356.38;;;5.16;100.00
60817;BME280;51921;51.518;-3.188;2023-02-12T02:11:11;103355.55;;;7.42;92.69
60817;BME280;51921;51.518;-3.188;2023-02-12T02:13:36;103348.22;;;6.83;89.29
60817;BME280;51921;51.518;-3.188;2023-02-12T02:16:08;103350.14;;;6.16;93.99
60817;BME280;51921;51.518;-3.188;2023-02-12T02:18:34;103355.28;;;5.82;93.93
60817;BME280;51921;51.518;-3.188;2023-02-12T02:21:09;103359.03;;;6.06;94.11
60817;BME280;51921;51.518;-3.188;2023-02-12T02:23:32;103357.41;;;7.45;86.27
60817;BME280;51921;51.518;-3.188;2023-02-12T02:26:02;103357.65;;;6.01;91.67
60817;BME280;51921;51.518;-3.188;2023-02-12T02:30:40;103361.47;;;6.78;92.75
60817;BME280;51921;51.518;-3.188;2023-02-12T02:33:09;103361.57;;;5.86;95.52
60817;BME280;51921;51.518;-3.188;2023-02-12T02:35:31;103364.51;;;4.68;100.00
60817;BME280;51921;51.518;-3.188;2023-02-12T02:37:55;103362.77;;;6.33;96.10
60817;BME280;51921;51.518;-3.188;2023-02-12T02:40:18;103363.53;;;5.72;100.00
60817;BME280;51921;51.518;-3.188;2023-02-12T02:42:45;103362.67;;;5.09;100.00
60817;BME280;51921;51.518;-3.188;2023-02-12T02:45:11;103366.39;;;4.61;100.00
60817;BME280;51921;51.518;-3.188;2023-02-12T02:47:35;103360.69;;;5.47;99.68
60817;BME280;51921;51.518;-3.188;2023-02-12T02:50:03;103360.60;;;5.46;100.00
60817;BME280;51921;51.518;-3.188;2023-02-12T02:52:29;103365.41;;;5.52;100.00
60817;BME280;51921;51.518;-3.188;2023-02-12T02:54:51;103358.66;;;5.54;98.10
60817;BME280;51921;51.518;-3.188;2023-02-12T02:57:16;103356.31;;;4.85;100.00
60817;BME280;51921;51.518;-3.188;2023-02-12T02:59:43;103357.41;;;6.93;95.28
60817;BME280;51921;51.518;-3.188;2023-02-12T03:02:08;103359.43;;;7.78;88.67
60817;BME280;51921;51.518;-3.188;2023-02-12T03:04:34;103362.45;;;8.53;84.97
60817;BME280;51921;51.518;-3.188;2023-02-12T03:06:59;103360.79;;;8.15;82.47
60817;BME280;51921;51.518;-3.188;2023-02-12T03:09:25;103357.63;;;8.68;80.45
60817;BME280;51921;51.518;-3.188;2023-02-12T03:11:47;103354.06;;;9.22;76.78
60817;BME280;51921;51.518;-3.188;2023-02-12T03:14:16;103357.46;;;6.06;89.04
60817;BME280;51921;51.518;-3.188;2023-02-12T03:16:40;103351.51;;;4.29;100.00
60817;BME280;51921;51.518;-3.188;2023-02-12T03:19:07;103353.78;;;4.12;100.00
60817;BME280;51921;51.518;-3.188;2023-02-12T03:21:31;103350.36;;;5.19;100.00
60817;BME280;51921;51.518;-3.188;2023-02-12T03:23:59;103343.73;;;5.41;100.00
60817;BME280;51921;51.518;-3.188;2023-02-12T03:26:23;103341.67;;;4.71;100.00
60817;BME280;51921;51.518;-3.188;2023-02-12T03:28:45;103347.80;;;4.58;100.00
60817;BME280;51921;51.518;-3.188;2023-02-12T03:31:18;103348.14;;;5.13;100.00
60817;BME280;51921;51.518;-3.188;2023-02-12T03:33:42;103342.83;;;4.21;100.00
60817;BME280;51921;51.518;-3.188;2023-02-12T03:36:08;103346.08;;;4.24;100.00
60817;BME280;51921;51.518;-3.188;2023-02-12T03:38:34;103344.09;;;5.01;100.00
60817;BME280;51921;51.518;-3.188;2023-02-12T03:40:57;103344.30;;;4.16;100.00
60817;BME280;51921;51.518;-3.188;2023-02-12T03:43:23;103342.24;;;5.65;100.00
60817;BME280;51921;51.518;-3.188;2023-02-12T03:45:48;103338.46;;;5.59;96.70
60817;BME280;51921;51.518;-3.188;2023-02-12T03:48:16;103338.28;;;4.54;100.00
60817;BME280;51921;51.518;-3.188;2023-02-12T03:50:40;103333.48;;;4.31;100.00
60817;BME280;51921;51.518;-3.188;2023-02-12T03:53:00;103330.17;;;4.22;100.00
60817;BME280;51921;51.518;-3.188;2023-02-12T03:55:26;103323.92;;;6.39;94.96
60817;BME280;51921;51.518;-3.188;2023-02-12T03:57:55;103326.28;;;5.26;100.00
60817;BME280;51921;51.518;-3.188;2023-02-12T04:00:20;103329.18;;;6.77;93.85
60817;BME280;51921;51.518;-3.188;2023-02-12T04:02:43;103331.01;;;4.90;96.75
60817;BME280;51921;51.518;-3.188;2023-02-12T04:05:16;103334.54;;;3.48;100.00
60817;BME280;51921;51.518;-3.188;2023-02-12T04:07:35;103336.24;;;4.13;100.00
60817;BME280;51921;51.518;-3.188;2023-02-12T04:10:00;103337.19;;;4.18;100.00
60817;BME280;51921;51.518;-3.188;2023-02-12T04:12:33;103336.21;;;3.89;100.00
60817;BME280;51921;51.518;-3.188;2023-02-12T04:14:54;103329.52;;;3.99;100.00
60817;BME280;51921;51.518;-3.188;2023-02-12T04:17:25;103329.80;;;4.32;100.00
60817;BME280;51921;51.518;-3.188;2023-02-12T04:19:51;103328.31;;;5.12;100.00
60817;BME280;51921;51.518;-3.188;2023-02-12T04:22:17;103327.04;;;4.52;100.00
60817;BME280;51921;51.518;-3.188;2023-02-12T04:24:45;103326.97;;;5.47;100.00
60817;BME280;51921;51.518;-3.188;2023-02-12T04:27:03;103324.78;;;6.47;92.64
60817;BME280;51921;51.518;-3.188;2023-02-12T04:29:29;103321.83;;;6.47;90.43
60817;BME280;51921;51.518;-3.188;2023-02-12T04:31:54;103319.28;;;5.49;92.07
60817;BME280;51921;51.518;-3.188;2023-02-12T04:34:17;103324.63;;;4.52;100.00
60817;BME280;51921;51.518;-3.188;2023-02-12T04:36:45;103329.46;;;4.59;100.00
60817;BME280;51921;51.518;-3.188;2023-02-12T04:39:08;103327.13;;;6.52;94.22
60817;BME280;51921;51.518;-3.188;2023-02-12T04:41:32;103326.57;;;5.04;93.60
60817;BME280;51921;51.518;-3.188;2023-02-12T04:43:57;103326.29;;;4.66;100.00
60817;BME280;51921;51.518;-3.188;2023-02-12T04:46:22;103329.72;;;3.42;100.00
60817;BME280;51921;51.518;-3.188;2023-02-12T04:48:52;103330.40;;;3.65;100.00
60817;BME280;51921;51.518;-3.188;2023-02-12T04:51:14;103331.84;;;3.37;100.00
60817;BME280;51921;51.518;-3.188;2023-02-12T04:53:39;103336.51;;;3.25;100.00
60817;BME280;51921;51.518;-3.188;2023-02-12T04:56:08;103334.39;;;5.21;100.00
60817;BME280;51921;51.518;-3.188;2023-02-12T04:58:30;103335.47;;;6.95;95.05
60817;BME280;51921;51.518;-3.188;2023-02-12T05:00:58;103333.94;;;7.89;88.38
60817;BME280;51921;51.518;-3.188;2023-02-12T05:03:22;103334.76;;;7.13;88.11
60817;BME280;51921;51.518;-3.188;2023-02-12T05:05:47;103341.45;;;4.44;98.53
60817;BME280;51921;51.518;-3.188;2023-02-12T05:08:12;103342.43;;;4.25;100.00
60817;BME280;51921;51.518;-3.188;2023-02-12T05:10:37;103341.27;;;4.82;100.00
60817;BME280;51921;51.518;-3.188;2023-02-12T05:13:02;103339.22;;;5.02;100.00
60817;BME280;51921;51.518;-3.188;2023-02-12T05:15:28;103342.53;;;4.23;100.00
60817;BME280;51921;51.518;-3.188;2023-02-12T05:17:52;103350.68;;;4.13;100.00
60817;BME280;51921;51.518;-3.188;2023-02-12T05:20:19;103344.04;;;4.54;100.00
60817;BME280;51921;51.518;-3.188;2023-02-12T05:22:44;103339.22;;;4.47;100.00
60817;BME280;51921;51.518;-3.188;2023-02-12T05:25:10;103339.36;;;4.34;100.00
60817;BME280;51921;51.518;-3.188;2023-02-12T05:27:35;103335.06;;;4.26;100.00
60817;BME280;51921;51.518;-3.188;2023-02-12T05:30:01;103336.07;;;3.46;100.00
60817;BME280;51921;51.518;-3.188;2023-02-12T05:32:27;103336.81;;;3.59;100.00
60817;BME280;51921;51.518;-3.188;2023-02-12T05:34:52;103330.75;;;3.16;100.00
60817;BME280;51921;51.518;-3.188;2023-02-12T05:37:17;103326.27;;;2.94;100.00
60817;BME280;51921;51.518;-3.188;2023-02-12T05:39:44;103329.41;;;2.45;100.00
60817;BME280;51921;51.518;-3.188;2023-02-12T05:42:09;103328.02;;;2.36;100.00
60817;BME280;51921;51.518;-3.188;2023-02-12T05:44:35;103323.34;;;2.91;100.00
60817;BME280;51921;51.518;-3.188;2023-02-12T05:47:01;103328.89;;;3.36;100.00
60817;BME280;51921;51.518;-3.188;2023-02-12T05:49:26;103323.45;;;3.80;100.00
60817;BME280;51921;51.518;-3.188;2023-02-12T05:51:51;103317.45;;;3.34;100.00
60817;BME280;51921;51.518;-3.188;2023-02-12T05:54:18;103320.04;;;4.03;100.00
60817;BME280;51921;51.518;-3.188;2023-02-12T05:56:45;103316.44;;;3.49;100.00
60817;BME280;51921;51.518;-3.188;2023-02-12T05:59:13;103317.13;;;3.93;100.00
60817;BME280;51921;51.518;-3.188;2023-02-12T06:01:37;103319.19;;;2.59;100.00
60817;BME280;51921;51.518;-3.188;2023-02-12T06:04:00;103317.77;;;2.84;100.00
60817;BME280;51921;51.518;-3.188;2023-02-12T06:06:25;103322.69;;;3.54;100.00
60817;BME280;51921;51.518;-3.188;2023-02-12T06:08:51;103323.25;;;3.22;100.00
60817;BME280;51921;51.518;-3.188;2023-02-12T06:11:16;103320.63;;;2.92;100.00
60817;BME280;51921;51.518;-3.188;2023-02-12T06:13:42;103319.52;;;2.98;100.00
60817;BME280;51921;51.518;-3.188;2023-02-12T06:18:35;103319.55;;;3.03;100.00
60817;BME280;51921;51.518;-3.188;2023-02-12T06:20:58;103316.77;;;2.48;100.00
60817;BME280;51921;51.518;-3.188;2023-02-12T06:23:24;103313.94;;;3.15;100.00
60817;BME280;51921;51.518;-3.188;2023-02-12T06:25:49;103309.88;;;3.05;100.00
60817;BME280;51921;51.518;-3.188;2023-02-12T06:28:21;103308.84;;;2.77;100.00
60817;BME280;51921;51.518;-3.188;2023-02-12T06:30:40;103307.31;;;3.51;100.00
60817;BME280;51921;51.518;-3.188;2023-02-12T06:33:05;103306.00;;;3.46;100.00
60817;BME280;51921;51.518;-3.188;2023-02-12T06:35:32;103308.27;;;2.51;100.00
60817;BME280;51921;51.518;-3.188;2023-02-12T06:37:57;103301.36;;;3.67;100.00
60817;BME280;51921;51.518;-3.188;2023-02-12T06:40:22;103301.82;;;4.14;100.00
60817;BME280;51921;51.518;-3.188;2023-02-12T06:42:47;103301.46;;;3.31;100.00
60817;BME280;51921;51.518;-3.188;2023-02-12T06:45:12;103299.62;;;2.87;100.00
60817;BME280;51921;51.518;-3.188;2023-02-12T06:47:38;103303.35;;;3.91;100.00
60817;BME280;51921;51.518;-3.188;2023-02-12T06:50:05;103302.72;;;2.91;100.00
60817;BME280;51921;51.518;-3.188;2023-02-12T06:52:29;103305.94;;;4.20;100.00
60817;BME280;51921;51.518;-3.188;2023-02-12T06:54:55;103307.55;;;3.25;100.00
60817;BME280;51921;51.518;-3.188;2023-02-12T06:57:20;103306.60;;;2.89;100.00
60817;BME280;51921;51.518;-3.188;2023-02-12T06:59:45;103304.65;;;3.09;100.00
60817;BME280;51921;51.518;-3.188;2023-02-12T07:02:10;103308.89;;;3.86;100.00
60817;BME280;51921;51.518;-3.188;2023-02-12T07:04:37;103306.35;;;3.80;100.00
60817;BME280;51921;51.518;-3.188;2023-02-12T07:07:01;103307.91;;;4.97;100.00
60817;BME280;51921;51.518;-3.188;2023-02-12T07:09:27;103315.19;;;3.86;100.00
60817;BME280;51921;51.518;-3.188;2023-02-12T07:11:52;103313.96;;;3.26;100.00
60817;BME280;51921;51.518;-3.188;2023-02-12T07:14:18;103311.07;;;3.39;100.00
60817;BME280;51921;51.518;-3.188;2023-02-12T07:16:43;103307.29;;;3.47;100.00
60817;BME280;51921;51.518;-3.188;2023-02-12T07:19:11;103310.35;;;3.45;100.00
60817;BME280;51921;51.518;-3.188;2023-02-12T07:21:34;103315.90;;;3.17;100.00
60817;BME280;51921;51.518;-3.188;2023-02-12T07:24:00;103316.87;;;3.66;100.00
60817;BME280;51921;51.518;-3.188;2023-02-12T07:26:25;103322.79;;;3.48;100.00
60817;BME280;51921;51.518;-3.188;2023-02-12T07:28:51;103319.80;;;3.82;100.00
60817;BME280;51921;51.518;-3.188;2023-02-12T07:31:18;103325.00;;;3.47;100.00
60817;BME280;51921;51.518;-3.188;2023-02-12T07:33:42;103326.52;;;5.92;100.00
60817;BME280;51921;51.518;-3.188;2023-02-12T07:36:10;103326.35;;;3.40;100.00
60817;BME280;51921;51.518;-3.188;2023-02-12T07:38:32;103331.58;;;3.54;100.00
60817;BME280;51921;51.518;-3.188;2023-02-12T07:41:06;103340.70;;;4.15;100.00
60817;BME280;51921;51.518;-3.188;2023-02-12T07:43:23;103336.65;;;4.91;100.00
60817;BME280;51921;51.518;-3.188;2023-02-12T07:45:49;103342.51;;;3.99;100.00
60817;BME280;51921;51.518;-3.188;2023-02-12T07:48:20;103343.62;;;3.43;100.00
60817;BME280;51921;51.518;-3.188;2023-02-12T07:50:40;103343.59;;;3.21;100.00
60817;BME280;51921;51.518;-3.188;2023-02-12T07:53:05;103352.89;;;4.01;100.00
60817;BME280;51921;51.518;-3.188;2023-02-12T07:55:31;103356.56;;;4.09;100.00
60817;BME280;51921;51.518;-3.188;2023-02-12T07:57:56;103356.00;;;4.76;100.00
60817;BME280;51921;51.518;-3.188;2023-02-12T08:00:23;103358.57;;;3.11;100.00
60817;BME280;51921;51.518;-3.188;2023-02-12T08:02:51;103360.74;;;2.99;100.00
60817;BME280;51921;51.518;-3.188;2023-02-12T08:05:23;103361.38;;;3.11;100.00
60817;BME280;51921;51.518;-3.188;2023-02-12T08:12:28;103353.47;;;3.52;100.00
60817;BME280;51921;51.518;-3.188;2023-02-12T08:14:54;103349.31;;;3.26;100.00
60817;BME280;51921;51.518;-3.188;2023-02-12T08:17:19;103354.88;;;2.64;100.00
60817;BME280;51921;51.518;-3.188;2023-02-12T08:19:45;103355.85;;;3.50;100.00
60817;BME280;51921;51.518;-3.188;2023-02-12T08:22:09;103354.85;;;3.49;100.00
60817;BME280;51921;51.518;-3.188;2023-02-12T08:24:34;103359.54;;;4.13;100.00
60817;BME280;51921;51.518;-3.188;2023-02-12T08:27:00;103358.79;;;3.13;100.00
60817;BME280;51921;51.518;-3.188;2023-02-12T08:29:27;103358.82;;;3.18;100.00
60817;BME280;51921;51.518;-3.188;2023-02-12T08:31:55;103357.44;;;3.31;100.00
60817;BME280;51921;51.518;-3.188;2023-02-12T08:34:17;103359.54;;;3.12;100.00
60817;BME280;51921;51.518;-3.188;2023-02-12T08:36:41;103361.12;;;3.50;100.00
60817;BME280;51921;51.518;-3.188;2023-02-12T08:39:07;103361.69;;;3.31;100.00
60817;BME280;51921;51.518;-3.188;2023-02-12T08:41:32;103365.53;;;2.94;100.00
60817;BME280;51921;51.518;-3.188;2023-02-12T08:43:59;103363.80;;;3.19;100.00
60817;BME280;51921;51.518;-3.188;2023-02-12T08:46:24;103369.11;;;2.83;100.00
60817;BME280;51921;51.518;-3.188;2023-02-12T08:51:15;103364.59;;;3.74;100.00
60817;BME280;51921;51.518;-3.188;2023-02-12T08:53:40;103363.24;;;2.92;100.00
60817;BME280;51921;51.518;-3.188;2023-02-12T08:56:06;103365.87;;;3.88;100.00
60817;BME280;51921;51.518;-3.188;2023-02-12T08:58:30;103364.51;;;4.39;100.00
60817;BME280;51921;51.518;-3.188;2023-02-12T09:00:55;103360.96;;;3.91;100.00
60817;BME280;51921;51.518;-3.188;2023-02-12T09:03:22;103360.36;;;3.32;100.00
60817;BME280;51921;51.518;-3.188;2023-02-12T09:05:46;103364.11;;;4.57;100.00
60817;BME280;51921;51.518;-3.188;2023-02-12T09:08:12;103363.14;;;4.23;100.00
60817;BME280;51921;51.518;-3.188;2023-02-12T09:10:38;103360.24;;;4.87;100.00
60817;BME280;51921;51.518;-3.188;2023-02-12T09:13:02;103358.69;;;5.98;93.40
60817;BME280;51921;51.518;-3.188;2023-02-12T09:15:27;103363.33;;;5.49;93.21
60817;BME280;51921;51.518;-3.188;2023-02-12T09:17:52;103364.52;;;4.80;91.35
60817;BME280;51921;51.518;-3.188;2023-02-12T09:20:18;103364.14;;;4.12;97.87
60817;BME280;51921;51.518;-3.188;2023-02-12T09:22:44;103367.83;;;4.54;97.70
60817;BME280;51921;51.518;-3.188;2023-02-12T09:25:09;103362.74;;;5.48;92.62
60817;BME280;51921;51.518;-3.188;2023-02-12T09:27:35;103365.93;;;4.34;92.29
60817;BME280;51921;51.518;-3.188;2023-02-12T09:30:00;103359.82;;;5.55;92.83
60817;BME280;51921;51.518;-3.188;2023-02-12T09:32:26;103357.34;;;5.37;89.88
60817;BME280;51921;51.518;-3.188;2023-02-12T09:34:51;103356.82;;;6.56;83.40
60817;BME280;51921;51.518;-3.188;2023-02-12T09:37:17;103354.88;;;6.13;80.31
60817;BME280;51921;51.518;-3.188;2023-02-12T09:39:43;103357.93;;;6.36;80.80
60817;BME280;51921;51.518;-3.188;2023-02-12T09:42:25;103361.57;;;4.48;89.35
60817;BME280;51921;51.518;-3.188;2023-02-12T09:44:41;103358.04;;;4.88;88.74
60817;BME280;51921;51.518;-3.188;2023-02-12T09:47:02;103356.68;;;5.96;86.66
60817;BME280;51921;51.518;-3.188;2023-02-12T09:51:51;103356.42;;;7.21;78.20
60817;BME280;51921;51.518;-3.188;2023-02-12T09:54:17;103365.19;;;6.93;76.79
60817;BME280;51921;51.518;-3.188;2023-02-12T09:56:43;103361.37;;;6.92;73.68
60817;BME280;51921;51.518;-3.188;2023-02-12T09:59:07;103360.66;;;6.32;79.01
60817;BME280;51921;51.518;-3.188;2023-02-12T10:01:31;103359.84;;;4.11;92.02
60817;BME280;51921;51.518;-3.188;2023-02-12T10:03:57;103361.35;;;5.41;89.62
60817;BME280;51921;51.518;-3.188;2023-02-12T10:06:25;103359.73;;;5.80;87.32
60817;BME280;51921;51.518;-3.188;2023-02-12T10:08:58;103360.75;;;4.59;93.63
60817;BME280;51921;51.518;-3.188;2023-02-12T10:11:23;103351.60;;;5.92;86.80
60817;BME280;51921;51.518;-3.188;2023-02-12T10:13:43;103346.88;;;6.69;82.10
60817;BME280;51921;51.518;-3.188;2023-02-12T10:16:11;103347.85;;;6.14;85.95
60817;BME280;51921;51.518;-3.188;2023-02-12T10:21:03;103346.54;;;6.55;83.24
60817;BME280;51921;51.518;-3.188;2023-02-12T10:23:35;103348.56;;;5.46;84.60
60817;BME280;51921;51.518;-3.188;2023-02-12T10:25:53;103352.23;;;5.85;85.32
60817;BME280;51921;51.518;-3.188;2023-02-12T10:28:16;103354.18;;;5.09;87.92
60817;BME280;51921;51.518;-3.188;2023-02-12T10:30:42;103357.17;;;4.56;91.28
60817;BME280;51921;51.518;-3.188;2023-02-12T10:33:05;103357.67;;;4.12;93.79
60817;BME280;51921;51.518;-3.188;2023-02-12T10:35:28;103352.40;;;5.71;85.69
60817;BME280;51921;51.518;-3.188;2023-02-12T10:37:57;103354.92;;;6.07;80.92
60817;BME280;51921;51.518;-3.188;2023-02-12T10:40:22;103357.15;;;5.21;83.59
60817;BME280;51921;51.518;-3.188;2023-02-12T10:42:47;103360.72;;;4.50;89.46
60817;BME280;51921;51.518;-3.188;2023-02-12T10:45:13;103354.62;;;4.53;97.26
60817;BME280;51921;51.518;-3.188;2023-02-12T10:47:36;103353.02;;;4.16;94.89
60817;BME280;51921;51.518;-3.188;2023-02-12T10:50:07;103353.19;;;5.04;97.80
60817;BME280;51921;51.518;-3.188;2023-02-12T10:52:35;103350.21;;;5.79;88.08
60817;BME280;51921;51.518;-3.188;2023-02-12T10:54:53;103354.04;;;6.65;84.11
60817;BME280;51921;51.518;-3.188;2023-02-12T10:57:21;103354.37;;;7.57;78.76
60817;BME280;51921;51.518;-3.188;2023-02-12T10:59:46;103356.09;;;5.45;84.66
60817;BME280;51921;51.518;-3.188;2023-02-12T11:02:22;103360.49;;;3.50;98.51
60817;BME280;51921;51.518;-3.188;2023-02-12T11:04:37;103361.51;;;6.03;88.99
60817;BME280;51921;51.518;-3.188;2023-02-12T11:07:03;103361.03;;;5.87;85.94
60817;BME280;51921;51.518;-3.188;2023-02-12T11:09:29;103366.96;;;7.05;79.28
60817;BME280;51921;51.518;-3.188;2023-02-12T11:11:52;103363.66;;;7.72;74.49
60817;BME280;51921;51.518;-3.188;2023-02-12T11:14:19;103365.64;;;6.84;79.15
60817;BME280;51921;51.518;-3.188;2023-02-12T11:16:50;103366.44;;;5.30;88.53
60817;BME280;51921;51.518;-3.188;2023-02-12T11:19:18;103361.41;;;5.09;85.15
60817;BME280;51921;51.518;-3.188;2023-02-12T11:21:35;103355.19;;;6.93;80.97
60817;BME280;51921;51.518;-3.188;2023-02-12T11:26:27;103355.26;;;7.20;79.02
60817;BME280;51921;51.518;-3.188;2023-02-12T11:28:53;103366.13;;;4.16;89.64
60817;BME280;51921;51.518;-3.188;2023-02-12T11:31:21;103358.27;;;4.68;91.72
60817;BME280;51921;51.518;-3.188;2023-02-12T11:33:42;103347.80;;;5.14;90.76
60817;BME280;51921;51.518;-3.188;2023-02-12T11:36:15;103345.36;;;4.74;88.03
60817;BME280;51921;51.518;-3.188;2023-02-12T11:38:37;103342.51;;;5.82;86.03
60817;BME280;51921;51.518;-3.188;2023-02-12T11:41:03;103341.84;;;7.12;77.63
60817;BME280;51921;51.518;-3.188;2023-02-12T11:43:26;103341.98;;;6.93;78.32
60817;BME280;51921;51.518;-3.188;2023-02-12T11:45:52;103333.55;;;6.03;78.04
60817;BME280;51921;51.518;-3.188;2023-02-12T11:48:18;103337.38;;;5.15;80.67
60817;BME280;51921;51.518;-3.188;2023-02-12T11:50:46;103339.21;;;4.97;83.18
60817;BME280;51921;51.518;-3.188;2023-02-12T11:53:07;103336.52;;;3.97;93.45
60817;BME280;51921;51.518;-3.188;2023-02-12T11:55:35;103335.47;;;4.50;92.83
60817;BME280;51921;51.518;-3.188;2023-02-12T11:58:02;103329.30;;;5.07;88.52
60817;BME280;51921;51.518;-3.188;2023-02-12T12:00:32;103334.60;;;3.90;92.52
60817;BME280;51921;51.518;-3.188;2023-02-12T12:02:52;103335.49;;;4.66;94.57
60817;BME280;51921;51.518;-3.188;2023-02-12T12:05:17;103327.73;;;6.32;83.46
60817;BME280;51921;51.518;-3.188;2023-02-12T12:07:42;103331.26;;;3.96;88.59
60817;BME280;51921;51.518;-3.188;2023-02-12T12:10:11;103326.90;;;3.28;96.91
60817;BME280;51921;51.518;-3.188;2023-02-12T12:12:36;103324.70;;;3.70;100.00
60817;BME280;51921;51.518;-3.188;2023-02-12T12:14:59;103328.58;;;4.78;91.51
60817;BME280;51921;51.518;-3.188;2023-02-12T12:17:26;103322.32;;;5.20;87.87
60817;BME280;51921;51.518;-3.188;2023-02-12T12:19:54;103318.66;;;6.58;84.85
60817;BME280;51921;51.518;-3.188;2023-02-12T12:22:20;103315.08;;;6.59;75.66
60817;BME280;51921;51.518;-3.188;2023-02-12T12:24:42;103311.41;;;5.47;82.83
60817;BME280;51921;51.518;-3.188;2023-02-12T12:27:09;103304.08;;;5.50;85.07
60817;BME280;51921;51.518;-3.188;2023-02-12T12:29:40;103305.72;;;6.08;83.43
60817;BME280;51921;51.518;-3.188;2023-02-12T12:34:22;103301.80;;;5.45;81.90
60817;BME280;51921;51.518;-3.188;2023-02-12T12:36:58;103298.88;;;4.10;88.09
60817;BME280;51921;51.518;-3.188;2023-02-12T12:39:16;103294.44;;;5.24;85.35
60817;BME280;51921;51.518;-3.188;2023-02-12T12:41:43;103286.60;;;6.19;82.71
60817;BME280;51921;51.518;-3.188;2023-02-12T12:44:13;103289.48;;;4.36;86.46
60817;BME280;51921;51.518;-3.188;2023-02-12T12:46:43;103288.10;;;4.27;91.38
60817;BME280;51921;51.518;-3.188;2023-02-12T12:49:02;103287.31;;;3.34;94.28
60817;BME280;51921;51.518;-3.188;2023-02-12T12:51:29;103280.44;;;3.60;96.30
60817;BME280;51921;51.518;-3.188;2023-02-12T12:53:54;103279.06;;;3.30;95.95
60817;BME280;51921;51.518;-3.188;2023-02-12T12:56:19;103278.50;;;3.39;99.72